createdAt,value
2023-02-08T00:01:19.535Z,-2.38
2023-02-08T00:03:46.788Z,-2.44
2023-02-08T00:09:04.354Z,-2.40
2023-02-08T00:11:30.871Z,-2.41
2023-02-08T00:13:57.456Z,-2.39
2023-02-08T00:16:24.005Z,-2.36
2023-02-08T00:18:50.575Z,-2.47
2023-02-08T00:21:18.969Z,-2.53
2023-02-08T00:23:46.522Z,-2.61
2023-02-08T00:26:13.444Z,-2.64
2023-02-08T00:28:40.064Z,-2.55
2023-02-08T00:31:06.828Z,-2.59
2023-02-08T00:33:33.563Z,-2.41
2023-02-08T00:36:01.656Z,-2.55
2023-02-08T00:38:28.925Z,-2.53
2023-02-08T00:40:55.453Z,-2.57
2023-02-08T00:43:22.038Z,-2.59
2023-02-08T00:45:54.064Z,-2.58
2023-02-08T00:48:20.996Z,-2.58
2023-02-08T00:51:04.773Z,-2.48
2023-02-08T00:53:31.577Z,-2.61
2023-02-08T00:55:58.194Z,-2.67
2023-02-08T00:58:24.809Z,-2.71
2023-02-08T01:00:53.466Z,-2.74
2023-02-08T01:03:23.226Z,-2.79
2023-02-08T01:05:49.838Z,-2.77
2023-02-08T01:08:16.824Z,-2.79
2023-02-08T01:10:43.375Z,-2.80
2023-02-08T01:13:10.097Z,-2.87
2023-02-08T01:15:37.382Z,-2.82
2023-02-08T01:18:04.406Z,-2.92
2023-02-08T01:20:31.430Z,-2.90
2023-02-08T01:22:57.945Z,-2.78
2023-02-08T01:25:24.488Z,-2.75
2023-02-08T01:27:51.099Z,-2.84
2023-02-08T01:30:17.803Z,-2.97
2023-02-08T01:32:44.380Z,-2.92
2023-02-08T01:35:10.933Z,-2.89
2023-02-08T01:37:37.434Z,-2.96
2023-02-08T01:40:04.431Z,-2.98
2023-02-08T01:42:30.973Z,-3.04
2023-02-08T01:45:15.925Z,-3.02
2023-02-08T01:47:44.325Z,-2.87
2023-02-08T01:50:11.333Z,-3.01
2023-02-08T01:52:38.792Z,-2.88
2023-02-08T01:55:20.654Z,-2.84
2023-02-08T01:57:52.642Z,-2.93
2023-02-08T02:00:22.590Z,-3.04
2023-02-08T02:02:53.566Z,-3.03
2023-02-08T02:05:26.644Z,-3.04
2023-02-08T02:07:55.784Z,-2.98
2023-02-08T02:10:27.964Z,-3.03
2023-02-08T02:12:58.240Z,-3.08
2023-02-08T02:15:24.950Z,-2.96
2023-02-08T02:17:51.517Z,-3.03
2023-02-08T02:20:25.469Z,-3.07
2023-02-08T02:23:10.472Z,-3.07
2023-02-08T02:25:52.154Z,-3.05
2023-02-08T02:28:43.441Z,-3.18
2023-02-08T02:31:28.676Z,-3.15
2023-02-08T02:34:26.376Z,-2.83
2023-02-08T02:37:18.375Z,-3.00
2023-02-08T02:40:02.741Z,-2.85
2023-02-08T02:43:27.630Z,-3.04
2023-02-08T02:49:17.811Z,-3.34
2023-02-08T02:51:50.591Z,-3.36
2023-02-08T02:54:19.449Z,-3.31
2023-02-08T02:56:50.192Z,-3.45
2023-02-08T02:59:18.167Z,-2.94
2023-02-08T03:04:33.700Z,-3.44
2023-02-08T03:07:13.766Z,-3.30
2023-02-08T03:10:14.610Z,-3.42
2023-02-08T03:12:49.794Z,-3.52
2023-02-08T03:18:34.446Z,-3.56
2023-02-08T03:21:24.492Z,-3.66
2023-02-08T03:26:54.292Z,-3.56
2023-02-08T03:29:32.055Z,-3.59
2023-02-08T03:32:09.234Z,-3.68
2023-02-08T03:34:51.713Z,-3.71
2023-02-08T03:40:06.393Z,-3.63
2023-02-08T03:42:35.257Z,-3.55
2023-02-08T03:45:08.757Z,-3.53
2023-02-08T03:47:39.385Z,-3.58
2023-02-08T03:50:10.886Z,-3.63
2023-02-08T03:52:39.234Z,-3.67
2023-02-08T03:55:12.301Z,-3.67
2023-02-08T03:57:48.175Z,-3.78
2023-02-08T04:00:17.185Z,-3.82
2023-02-08T04:02:52.076Z,-3.52
2023-02-08T04:07:51.919Z,-3.78
2023-02-08T04:10:18.837Z,-3.75
2023-02-08T04:12:47.247Z,-3.79
2023-02-08T04:15:13.808Z,-3.49
2023-02-08T04:17:40.348Z,-3.50
2023-02-08T04:20:07.209Z,-3.76
2023-02-08T04:22:33.798Z,-3.69
2023-02-08T04:25:00.404Z,-3.65
2023-02-08T04:27:27.067Z,-3.64
2023-02-08T04:29:53.628Z,-3.86
2023-02-08T04:32:20.158Z,-3.74
2023-02-08T04:34:46.683Z,-3.98
2023-02-08T04:37:13.199Z,-3.50
2023-02-08T04:39:39.878Z,-3.84
2023-02-08T04:44:39.661Z,-3.44
2023-02-08T04:47:06.179Z,-3.72
2023-02-08T04:49:32.794Z,-3.38
2023-02-08T04:51:59.394Z,-3.74
2023-02-08T04:54:25.998Z,-3.90
2023-02-08T04:56:52.593Z,-3.88
2023-02-08T04:59:19.554Z,-3.89
2023-02-08T05:01:46.154Z,-3.93
2023-02-08T05:04:12.844Z,-3.95
2023-02-08T05:06:39.436Z,-4.00
2023-02-08T05:09:09.919Z,-4.03
2023-02-08T05:11:37.141Z,-4.09
2023-02-08T05:14:04.808Z,-3.82
2023-02-08T05:16:31.562Z,-3.85
2023-02-08T05:18:58.279Z,-4.02
2023-02-08T05:21:24.876Z,-3.96
2023-02-08T05:23:52.389Z,-4.08
2023-02-08T05:26:19.383Z,-4.18
2023-02-08T05:28:46.145Z,-4.25
2023-02-08T05:31:17.585Z,-4.31
2023-02-08T05:33:44.241Z,-4.09
2023-02-08T05:36:11.110Z,-4.05
2023-02-08T05:41:09.653Z,-4.12
2023-02-08T05:43:36.580Z,-4.02
2023-02-08T05:46:03.376Z,-4.04
2023-02-08T05:48:33.150Z,-3.59
2023-02-08T05:51:00.116Z,-3.83
2023-02-08T05:53:27.444Z,-3.61
2023-02-08T05:55:54.059Z,-3.80
2023-02-08T05:58:20.555Z,-3.86
2023-02-08T06:00:47.296Z,-3.65
2023-02-08T06:03:14.081Z,-3.68
2023-02-08T06:05:41.210Z,-3.27
2023-02-08T06:10:40.237Z,-3.88
2023-02-08T06:13:06.999Z,-3.71
2023-02-08T06:15:33.562Z,-3.53
2023-02-08T06:18:00.145Z,-3.93
2023-02-08T06:20:26.647Z,-4.00
2023-02-08T06:22:53.259Z,-4.25
2023-02-08T06:25:19.827Z,-4.40
2023-02-08T06:27:46.312Z,-4.14
2023-02-08T06:30:13.261Z,-4.00
2023-02-08T06:32:39.839Z,-4.17
2023-02-08T06:35:07.060Z,-4.29
2023-02-08T06:37:33.573Z,-4.50
2023-02-08T06:42:38.926Z,-4.52
2023-02-08T06:45:08.364Z,-4.52
2023-02-08T06:47:34.878Z,-4.63
2023-02-08T06:50:01.352Z,-4.53
2023-02-08T06:52:27.843Z,-4.57
2023-02-08T06:54:54.468Z,-4.49
2023-02-08T06:57:21.045Z,-4.60
2023-02-08T06:59:47.562Z,-4.58
2023-02-08T07:02:17.060Z,-4.32
2023-02-08T07:04:44.155Z,-3.90
2023-02-08T07:07:12.343Z,-4.15
2023-02-08T07:09:39.093Z,-4.30
2023-02-08T07:12:05.914Z,-4.50
2023-02-08T07:14:34.077Z,-4.60
2023-02-08T07:17:01.969Z,-4.56
2023-02-08T07:19:29.051Z,-4.53
2023-02-08T07:21:56.379Z,-4.51
2023-02-08T07:24:23.937Z,-4.16
2023-02-08T07:26:50.487Z,-4.29
2023-02-08T07:29:17.016Z,-3.92
2023-02-08T07:31:43.639Z,-4.13
2023-02-08T07:34:10.217Z,-4.10
2023-02-08T07:36:36.863Z,-4.11
2023-02-08T07:39:03.910Z,-4.05
2023-02-08T07:41:31.154Z,-3.98
2023-02-08T07:43:59.935Z,-3.90
2023-02-08T07:46:26.580Z,-3.65
2023-02-08T07:48:53.555Z,-3.56
2023-02-08T07:51:20.160Z,-3.70
2023-02-08T07:53:46.861Z,-3.38
2023-02-08T07:56:13.461Z,-3.51
2023-02-08T07:58:40.828Z,-3.40
2023-02-08T08:01:21.415Z,-3.29
2023-02-08T08:03:50.190Z,-3.24
2023-02-08T08:06:16.916Z,-2.98
2023-02-08T08:08:47.471Z,-2.80
2023-02-08T08:11:15.313Z,-2.63
2023-02-08T08:13:42.072Z,-2.70
2023-02-08T08:16:08.927Z,-2.61
2023-02-08T08:18:36.117Z,-2.57
2023-02-08T08:21:03.425Z,-2.41
2023-02-08T08:23:30.648Z,-2.33
2023-02-08T08:25:57.216Z,-2.24
2023-02-08T08:28:23.902Z,-2.15
2023-02-08T08:30:50.611Z,-2.05
2023-02-08T08:33:17.212Z,-1.84
2023-02-08T08:35:47.193Z,-1.50
2023-02-08T08:38:13.946Z,-1.29
2023-02-08T08:40:40.880Z,-1.13
2023-02-08T08:43:07.720Z,-0.97
2023-02-08T08:45:36.304Z,-0.60
2023-02-08T08:48:05.829Z,-0.76
2023-02-08T08:50:32.429Z,-0.71
2023-02-08T08:52:58.994Z,-0.59
2023-02-08T08:55:26.126Z,-0.14
2023-02-08T08:57:53.635Z,0.15
2023-02-08T09:00:20.304Z,0.46
2023-02-08T09:02:46.813Z,0.52
2023-02-08T09:05:13.509Z,0.47
2023-02-08T09:07:40.068Z,0.80
2023-02-08T09:10:06.782Z,1.19
2023-02-08T09:12:33.371Z,1.07
2023-02-08T09:14:59.917Z,1.21
2023-02-08T09:17:26.494Z,1.80
2023-02-08T09:19:52.994Z,1.68
2023-02-08T09:22:20.358Z,1.80
2023-02-08T09:29:57.027Z,2.25
2023-02-08T09:32:23.675Z,2.22
2023-02-08T09:34:50.295Z,2.41
2023-02-08T09:37:18.138Z,2.47
2023-02-08T09:42:28.269Z,2.64
2023-02-08T09:45:19.570Z,2.47
2023-02-08T09:48:18.532Z,2.70
2023-02-08T09:50:50.880Z,2.88
2023-02-08T09:53:28.345Z,2.71
2023-02-08T09:56:04.893Z,3.35
2023-02-08T09:58:37.226Z,3.37
2023-02-08T10:01:10.624Z,3.97
2023-02-08T10:03:40.430Z,3.96
2023-02-08T10:06:11.716Z,3.76
2023-02-08T10:08:39.054Z,3.61
2023-02-08T10:11:36.121Z,3.91
2023-02-08T10:14:18.440Z,3.80
2023-02-08T10:16:55.791Z,3.38
2023-02-08T10:19:40.914Z,2.93
2023-02-08T10:22:31.297Z,2.94
2023-02-08T10:25:23.806Z,2.81
2023-02-08T10:28:06.983Z,2.52
2023-02-08T10:30:55.301Z,2.43
2023-02-08T10:33:37.582Z,2.46
2023-02-08T10:36:14.608Z,2.37
2023-02-08T10:38:46.829Z,2.30
2023-02-08T10:41:22.782Z,2.17
2023-02-08T10:43:59.659Z,2.18
2023-02-08T10:46:32.352Z,2.22
2023-02-08T10:51:54.415Z,2.47
2023-02-08T10:54:21.063Z,2.38
2023-02-08T10:59:58.737Z,2.51
2023-02-08T11:02:31.513Z,2.55
2023-02-08T11:04:59.749Z,2.70
2023-02-08T11:07:26.331Z,3.14
2023-02-08T11:09:53.291Z,3.35
2023-02-08T11:12:23.057Z,3.57
2023-02-08T11:14:52.317Z,3.83
2023-02-08T11:17:31.575Z,3.97
2023-02-08T11:19:59.489Z,4.15
2023-02-08T11:22:31.208Z,4.23
2023-02-08T11:25:05.743Z,4.42
2023-02-08T11:27:36.321Z,4.61
2023-02-08T11:30:14.649Z,4.85
2023-02-08T11:35:25.922Z,5.13
2023-02-08T11:37:58.016Z,4.96
2023-02-08T11:40:37.924Z,4.90
2023-02-08T11:43:05.578Z,4.99
2023-02-08T11:45:35.585Z,5.07
2023-02-08T11:48:05.161Z,5.07
2023-02-08T11:50:39.275Z,5.02
2023-02-08T11:53:16.906Z,5.19
2023-02-08T11:58:25.195Z,5.39
2023-02-08T12:01:20.494Z,5.70
2023-02-08T12:06:58.701Z,6.10
2023-02-08T12:09:48.357Z,5.93
2023-02-08T12:12:24.185Z,5.91
2023-02-08T12:15:22.908Z,6.24
2023-02-08T12:20:47.184Z,6.40
2023-02-08T12:23:52.290Z,6.64
2023-02-08T12:26:32.538Z,6.96
2023-02-08T12:29:15.271Z,7.31
2023-02-08T12:31:49.670Z,7.29
2023-02-08T12:34:34.968Z,7.45
2023-02-08T12:37:37.297Z,7.06
2023-02-08T12:40:44.070Z,7.06
2023-02-08T12:43:26.537Z,6.89
2023-02-08T12:46:14.856Z,7.13
2023-02-08T12:49:22.368Z,6.95
2023-02-08T12:54:43.064Z,6.84
2023-02-08T12:57:14.520Z,7.00
2023-02-08T13:00:04.701Z,7.40
2023-02-08T13:03:12.146Z,7.42
2023-02-08T13:05:53.491Z,7.29
2023-02-08T13:08:36.245Z,7.23
2023-02-08T13:11:19.731Z,7.53
2023-02-08T13:13:55.709Z,7.20
2023-02-08T13:16:27.741Z,7.13
2023-02-08T13:19:24.917Z,7.51
2023-02-08T13:21:54.055Z,7.89
2023-02-08T13:24:23.334Z,7.73
2023-02-08T13:26:50.093Z,7.87
2023-02-08T13:32:13.381Z,7.71
2023-02-08T13:34:51.845Z,7.33
2023-02-08T13:37:31.560Z,7.51
2023-02-08T13:40:21.563Z,7.47
2023-02-08T13:42:52.597Z,7.32
2023-02-08T13:45:44.100Z,6.99
2023-02-08T13:48:14.406Z,6.88
2023-02-08T13:50:43.181Z,6.77
2023-02-08T13:53:10.355Z,6.50
2023-02-08T13:55:44.293Z,6.98
2023-02-08T13:58:13.804Z,6.69
2023-02-08T14:00:56.723Z,6.30
2023-02-08T14:03:28.839Z,6.07
2023-02-08T14:05:59.124Z,5.97
2023-02-08T14:08:53.802Z,5.76
2023-02-08T14:11:35.562Z,5.86
2023-02-08T14:14:15.818Z,5.85
2023-02-08T14:16:44.814Z,5.73
2023-02-08T14:19:18.247Z,5.76
2023-02-08T14:21:47.765Z,5.74
2023-02-08T14:24:24.384Z,5.53
2023-02-08T14:27:04.906Z,5.34
2023-02-08T14:29:33.122Z,5.21
2023-02-08T14:32:00.486Z,5.19
2023-02-08T14:37:10.611Z,5.19
2023-02-08T14:39:37.580Z,5.17
2023-02-08T14:42:08.868Z,5.17
2023-02-08T14:44:38.111Z,5.12
2023-02-08T14:47:35.982Z,5.06
2023-02-08T14:53:04.790Z,4.88
2023-02-08T14:55:38.069Z,4.94
2023-02-08T15:00:40.105Z,4.72
2023-02-08T15:03:14.781Z,4.74
2023-02-08T15:08:32.238Z,4.70
2023-02-08T15:10:59.044Z,4.52
2023-02-08T15:13:25.783Z,4.56
2023-02-08T15:15:57.780Z,4.43
2023-02-08T15:21:15.915Z,4.43
2023-02-08T15:28:55.841Z,4.27
2023-02-08T15:31:28.621Z,4.23
2023-02-08T15:33:55.450Z,4.04
2023-02-08T15:39:13.029Z,4.01
2023-02-08T15:41:39.552Z,3.88
2023-02-08T15:44:23.815Z,3.69
2023-02-08T15:46:55.642Z,3.72
2023-02-08T15:49:46.224Z,3.71
2023-02-08T15:52:17.972Z,3.70
2023-02-08T15:54:45.574Z,3.69
2023-02-08T16:00:13.053Z,3.46
2023-02-08T16:02:39.788Z,3.43
2023-02-08T16:05:30.637Z,3.26
2023-02-08T16:07:58.313Z,3.28
2023-02-08T16:10:27.750Z,3.20
2023-02-08T16:12:57.660Z,3.25
2023-02-08T16:15:35.147Z,3.22
2023-02-08T16:18:01.699Z,3.10
2023-02-08T16:23:29.960Z,3.10
2023-02-08T16:25:58.377Z,3.02
2023-02-08T16:28:28.295Z,2.95
2023-02-08T16:33:38.123Z,2.83
2023-02-08T16:36:05.161Z,2.79
2023-02-08T16:38:34.278Z,2.87
2023-02-08T16:41:12.690Z,3.04
2023-02-08T16:43:44.247Z,2.74
2023-02-08T16:46:11.016Z,2.60
2023-02-08T16:48:42.320Z,2.54
2023-02-08T16:56:39.983Z,2.26
2023-02-08T16:59:07.062Z,2.17
2023-02-08T17:01:34.428Z,2.01
2023-02-08T17:04:01.100Z,2.04
2023-02-08T17:11:44.286Z,1.91
2023-02-08T17:14:10.917Z,1.83
2023-02-08T17:16:40.289Z,1.66
2023-02-08T17:19:07.322Z,1.59
2023-02-08T17:21:33.893Z,1.46
2023-02-08T17:24:01.626Z,1.43
2023-02-08T17:26:32.140Z,1.52
2023-02-08T17:28:59.398Z,1.45
2023-02-08T17:31:28.298Z,1.55
2023-02-08T17:33:55.846Z,1.58
2023-02-08T17:36:22.506Z,1.81
2023-02-08T17:38:49.172Z,1.73
2023-02-08T17:41:21.032Z,1.74
2023-02-08T17:46:30.652Z,1.67
2023-02-08T17:49:00.658Z,1.50
2023-02-08T17:51:28.232Z,1.53
2023-02-08T17:53:54.747Z,1.38
2023-02-08T17:56:27.556Z,1.35
2023-02-08T17:58:55.934Z,1.38
2023-02-08T18:01:25.182Z,1.18
2023-02-08T18:03:52.732Z,1.39
2023-02-08T18:08:52.628Z,1.53
2023-02-08T18:11:20.967Z,1.52
2023-02-08T18:13:49.498Z,1.36
2023-02-08T18:16:22.739Z,1.32
2023-02-08T18:18:49.563Z,1.28
2023-02-08T18:21:18.768Z,1.32
2023-02-08T18:23:46.130Z,1.41
2023-02-08T18:26:15.995Z,1.21
2023-02-08T18:28:42.602Z,1.05
2023-02-08T18:31:14.622Z,1.02
2023-02-08T18:33:43.042Z,1.08
2023-02-08T18:36:11.683Z,1.12
2023-02-08T18:38:40.287Z,1.10
2023-02-08T18:41:11.300Z,1.10
2023-02-08T18:43:39.272Z,1.06
2023-02-08T18:46:09.966Z,0.87
2023-02-08T18:51:10.785Z,0.67
2023-02-08T18:56:21.494Z,0.73
2023-02-08T18:58:48.218Z,0.55
2023-02-08T19:01:18.418Z,0.51
2023-02-08T19:06:25.841Z,0.21
2023-02-08T19:08:55.698Z,0.26
2023-02-08T19:11:27.669Z,0.15
2023-02-08T19:13:57.156Z,-0.01
2023-02-08T19:16:24.783Z,0.02
2023-02-08T19:24:06.499Z,0.09
2023-02-08T19:26:37.005Z,0.20
2023-02-08T19:31:38.223Z,0.53
2023-02-08T19:34:06.190Z,0.60
2023-02-08T19:39:15.072Z,0.05
2023-02-08T19:44:19.939Z,-0.06
2023-02-08T19:46:51.971Z,-0.08
2023-02-08T19:49:19.378Z,-0.12
2023-02-08T19:51:46.185Z,-0.25
2023-02-08T19:54:15.612Z,-0.21
2023-02-08T19:56:42.330Z,-0.21
2023-02-08T19:59:21.306Z,-0.34
2023-02-08T20:01:48.466Z,-0.34
2023-02-08T20:06:53.966Z,-0.54
2023-02-08T20:09:20.672Z,-0.48
2023-02-08T20:11:57.860Z,-0.54
2023-02-08T20:16:58.407Z,-0.54
2023-02-08T20:19:25.832Z,-0.20
2023-02-08T20:21:52.754Z,-0.10
2023-02-08T20:24:19.661Z,0.02
2023-02-08T20:26:48.061Z,0.16
2023-02-08T20:29:15.237Z,0.19
2023-02-08T20:31:43.778Z,0.27
2023-02-08T20:37:06.216Z,0.12
2023-02-08T20:42:14.094Z,0.21
2023-02-08T20:44:40.800Z,0.20
2023-02-08T20:47:09.050Z,0.13
2023-02-08T20:49:36.280Z,0.12
2023-02-08T20:52:02.852Z,0.20
2023-02-08T20:54:29.365Z,0.17
2023-02-08T20:56:56.470Z,0.14
2023-02-08T20:59:23.293Z,-0.07
2023-02-08T21:01:49.955Z,-0.17
2023-02-08T21:04:18.108Z,-0.23
2023-02-08T21:06:46.320Z,-0.49
2023-02-08T21:09:15.017Z,-0.55
2023-02-08T21:11:43.238Z,-0.66
2023-02-08T21:14:15.378Z,-0.76
2023-02-08T21:16:42.111Z,-0.88
2023-02-08T21:19:10.867Z,-1.05
2023-02-08T21:21:37.560Z,-1.06
2023-02-08T21:24:04.611Z,-0.89
2023-02-08T21:26:31.254Z,-0.73
2023-02-08T21:28:58.907Z,-0.61
2023-02-08T21:31:26.320Z,-0.67
2023-02-08T21:36:30.752Z,-0.81
2023-02-08T21:38:58.360Z,-0.95
2023-02-08T21:41:30.637Z,-0.85
2023-02-08T21:43:59.328Z,-0.90
2023-02-08T21:46:27.895Z,-0.65
2023-02-08T21:49:21.693Z,-0.38
2023-02-08T21:52:06.893Z,-0.79
2023-02-08T21:54:44.665Z,-0.88
2023-02-08T21:57:29.380Z,-0.53
2023-02-08T22:00:01.391Z,-0.87
2023-02-08T22:02:29.881Z,-0.72
2023-02-08T22:04:58.851Z,-0.80
2023-02-08T22:07:26.376Z,-0.63
2023-02-08T22:09:53.510Z,-0.64
2023-02-08T22:12:22.174Z,-0.69
2023-02-08T22:14:49.620Z,-0.91
2023-02-08T22:17:16.399Z,-0.94
2023-02-08T22:19:43.327Z,-1.11
2023-02-08T22:22:11.234Z,-1.23
2023-02-08T22:24:37.906Z,-0.96
2023-02-08T22:27:04.876Z,-0.79
2023-02-08T22:29:31.452Z,-0.85
2023-02-08T22:31:58.097Z,-0.83
2023-02-08T22:34:26.855Z,-1.22
2023-02-08T22:36:53.610Z,-0.80
2023-02-08T22:39:20.510Z,-1.08
2023-02-08T22:41:47.068Z,-1.13
2023-02-08T22:44:13.600Z,-1.22
2023-02-08T22:49:13.174Z,-1.28
2023-02-08T22:51:39.787Z,-0.96
2023-02-08T22:54:06.414Z,-0.62
2023-02-08T22:56:33.186Z,-0.56
2023-02-08T22:59:00.324Z,-0.52
2023-02-08T23:01:27.700Z,-0.62
2023-02-08T23:03:54.359Z,-0.64
2023-02-08T23:06:21.009Z,-0.65
2023-02-08T23:08:48.290Z,-0.62
2023-02-08T23:11:15.838Z,-0.60
2023-02-08T23:13:42.463Z,-0.52
2023-02-08T23:16:12.683Z,-0.52
2023-02-08T23:18:40.014Z,-0.67
2023-02-08T23:21:16.579Z,-0.81
2023-02-08T23:23:44.225Z,-0.92
2023-02-08T23:26:14.754Z,-0.88
2023-02-08T23:28:41.425Z,-1.06
2023-02-08T23:31:09.872Z,-1.11
2023-02-08T23:33:37.800Z,-1.15
2023-02-08T23:36:09.097Z,-1.26
2023-02-08T23:38:35.816Z,-1.39
2023-02-08T23:41:07.420Z,-1.36
2023-02-08T23:43:34.404Z,-1.31
2023-02-08T23:46:07.087Z,-1.19
2023-02-08T23:48:34.149Z,-1.37
2023-02-08T23:51:02.819Z,-1.28
2023-02-08T23:53:32.716Z,-0.98
2023-02-08T23:56:29.989Z,-0.88
2023-02-08T23:58:58.791Z,-0.83
